createdAt,value
2023-05-05T00:01:08.833Z,66.45
2023-05-05T00:03:35.685Z,65.97
2023-05-05T00:06:03.224Z,66.62
2023-05-05T00:08:30.092Z,66.71
2023-05-05T00:10:57.680Z,66.04
2023-05-05T00:13:24.566Z,66.60
2023-05-05T00:15:53.523Z,66.80
2023-05-05T00:18:21.339Z,67.15
2023-05-05T00:20:48.564Z,67.31
2023-05-05T00:23:16.547Z,67.08
2023-05-05T00:25:43.176Z,67.34
2023-05-05T00:28:09.934Z,66.46
2023-05-05T00:30:37.578Z,66.76
2023-05-05T00:33:04.426Z,67.45
2023-05-05T00:35:31.151Z,67.48
2023-05-05T00:37:58.229Z,67.87
2023-05-05T00:40:25.354Z,67.61
2023-05-05T00:42:52.262Z,67.89
2023-05-05T00:45:20.071Z,68.54
2023-05-05T00:47:51.448Z,68.79
2023-05-05T00:50:23.884Z,68.73
2023-05-05T00:52:52.692Z,69.61
2023-05-05T00:55:19.339Z,69.36
2023-05-05T00:57:46.677Z,69.09
2023-05-05T01:00:13.503Z,68.34
2023-05-05T01:02:41.374Z,69.01
2023-05-05T01:05:09.635Z,67.73
2023-05-05T01:07:59.462Z,67.27
2023-05-05T01:10:32.283Z,67.72
2023-05-05T01:13:20.630Z,67.80
2023-05-05T01:15:57.513Z,67.56
2023-05-05T01:18:29.396Z,67.81
2023-05-05T01:21:16.309Z,68.89
2023-05-05T01:23:42.810Z,68.35
2023-05-05T01:26:34.792Z,68.81
2023-05-05T01:29:32.414Z,69.24
2023-05-05T01:32:06.436Z,70.54
2023-05-05T01:34:40.198Z,71.72
2023-05-05T01:37:22.360Z,70.50
2023-05-05T01:39:57.777Z,71.90
2023-05-05T01:42:27.104Z,72.95
2023-05-05T01:44:54.601Z,72.57
2023-05-05T01:47:23.190Z,73.51
2023-05-05T01:49:50.455Z,73.70
2023-05-05T01:52:17.913Z,73.81
2023-05-05T01:54:45.699Z,74.03
2023-05-05T01:57:13.698Z,74.74
2023-05-05T01:59:40.507Z,74.57
2023-05-05T02:02:10.229Z,75.77
2023-05-05T02:04:42.472Z,74.78
2023-05-05T02:07:12.715Z,76.10
2023-05-05T02:09:40.744Z,75.66
2023-05-05T02:12:08.354Z,75.77
2023-05-05T02:14:36.296Z,75.91
2023-05-05T02:17:04.074Z,76.23
2023-05-05T02:19:34.677Z,77.09
2023-05-05T02:22:01.224Z,77.33
2023-05-05T02:24:27.887Z,77.07
2023-05-05T02:26:56.878Z,76.90
2023-05-05T02:29:32.705Z,75.81
2023-05-05T02:32:06.994Z,76.96
2023-05-05T02:34:38.373Z,76.52
2023-05-05T02:37:07.681Z,78.86
2023-05-05T02:39:47.654Z,79.60
2023-05-05T02:42:18.460Z,79.87
2023-05-05T02:44:46.265Z,80.35
2023-05-05T02:47:12.774Z,80.91
2023-05-05T02:49:39.302Z,80.85
2023-05-05T02:52:05.979Z,81.81
2023-05-05T02:54:33.571Z,81.76
2023-05-05T02:57:00.735Z,81.76
2023-05-05T02:59:38.153Z,82.00
2023-05-05T03:02:13.413Z,82.35
2023-05-05T03:04:51.797Z,83.15
2023-05-05T03:07:41.013Z,82.95
2023-05-05T03:10:12.051Z,83.44
2023-05-05T03:13:01.382Z,83.80
2023-05-05T03:15:35.980Z,84.42
2023-05-05T03:18:03.983Z,84.74
2023-05-05T03:20:31.196Z,85.84
2023-05-05T03:22:57.810Z,86.27
2023-05-05T03:25:41.973Z,86.11
2023-05-05T03:28:08.454Z,86.97
2023-05-05T03:30:34.938Z,86.68
2023-05-05T03:33:01.446Z,87.47
2023-05-05T03:35:28.106Z,88.00
2023-05-05T03:37:55.760Z,87.92
2023-05-05T03:40:36.400Z,88.11
2023-05-05T03:43:09.928Z,87.91
2023-05-05T03:45:36.472Z,88.02
2023-05-05T03:48:03.139Z,88.12
2023-05-05T03:50:29.651Z,88.10
2023-05-05T03:52:56.165Z,88.46
2023-05-05T03:55:22.753Z,88.77
2023-05-05T03:57:49.211Z,89.13
2023-05-05T04:00:16.022Z,89.14
2023-05-05T04:02:43.673Z,89.31
2023-05-05T04:05:10.350Z,89.45
2023-05-05T04:07:36.831Z,88.81
2023-05-05T04:10:03.648Z,89.32
2023-05-05T04:12:30.220Z,90.00
2023-05-05T04:14:56.809Z,89.57
2023-05-05T04:17:23.235Z,89.79
2023-05-05T04:19:49.781Z,90.26
2023-05-05T04:22:16.830Z,90.26
2023-05-05T04:24:43.309Z,90.64
2023-05-05T04:27:09.747Z,90.64
2023-05-05T04:29:36.171Z,90.89
2023-05-05T04:32:02.582Z,90.64
2023-05-05T04:34:29.189Z,90.74
2023-05-05T04:36:55.713Z,90.61
2023-05-05T04:39:22.276Z,90.96
2023-05-05T04:41:48.955Z,91.26
2023-05-05T04:44:15.828Z,90.88
2023-05-05T04:46:42.335Z,91.04
2023-05-05T04:49:09.287Z,91.62
2023-05-05T04:51:35.868Z,91.58
2023-05-05T04:54:02.367Z,91.46
2023-05-05T04:56:31.327Z,91.65
2023-05-05T04:58:57.760Z,91.60
2023-05-05T05:01:24.231Z,91.58
2023-05-05T05:03:51.162Z,91.62
2023-05-05T05:06:17.624Z,91.61
2023-05-05T05:08:44.113Z,91.49
2023-05-05T05:11:10.758Z,91.91
2023-05-05T05:13:37.259Z,92.02
2023-05-05T05:16:03.835Z,91.53
2023-05-05T05:18:30.255Z,91.62
2023-05-05T05:20:56.759Z,91.96
2023-05-05T05:23:23.250Z,91.72
2023-05-05T05:25:49.934Z,91.83
2023-05-05T05:28:16.459Z,91.44
2023-05-05T05:30:42.994Z,91.56
2023-05-05T05:33:09.486Z,90.92
2023-05-05T05:35:36.150Z,90.96
2023-05-05T05:38:02.591Z,90.96
2023-05-05T05:40:29.052Z,90.66
2023-05-05T05:42:56.096Z,90.82
2023-05-05T05:45:22.592Z,91.67
2023-05-05T05:47:49.480Z,91.21
2023-05-05T05:50:15.939Z,89.92
2023-05-05T05:52:42.573Z,90.57
2023-05-05T05:55:09.537Z,90.79
2023-05-05T05:57:36.000Z,89.89
2023-05-05T06:00:02.619Z,89.81
2023-05-05T06:02:29.402Z,90.13
2023-05-05T06:04:56.089Z,88.75
2023-05-05T06:07:22.598Z,88.07
2023-05-05T06:09:49.062Z,89.06
2023-05-05T06:12:15.626Z,89.08
2023-05-05T06:14:42.215Z,88.59
2023-05-05T06:17:08.716Z,88.45
2023-05-05T06:19:36.877Z,86.81
2023-05-05T06:22:03.371Z,86.21
2023-05-05T06:24:31.960Z,85.87
2023-05-05T06:27:02.301Z,84.54
2023-05-05T06:29:28.798Z,84.34
2023-05-05T06:31:55.747Z,83.83
2023-05-05T06:34:22.243Z,83.34
2023-05-05T06:36:48.838Z,82.75
2023-05-05T06:39:16.190Z,82.10
2023-05-05T06:41:42.828Z,81.82
2023-05-05T06:44:10.580Z,81.88
2023-05-05T06:46:37.340Z,80.24
2023-05-05T06:49:03.830Z,79.70
2023-05-05T06:51:31.301Z,80.69
2023-05-05T06:53:57.821Z,79.75
2023-05-05T06:56:24.423Z,79.80
2023-05-05T06:58:50.934Z,79.07
2023-05-05T07:01:17.554Z,78.42
2023-05-05T07:03:44.785Z,77.92
2023-05-05T07:06:11.410Z,77.65
2023-05-05T07:08:37.961Z,77.07
2023-05-05T07:11:04.551Z,77.15
2023-05-05T07:13:31.216Z,76.87
2023-05-05T07:15:57.787Z,76.74
2023-05-05T07:18:24.296Z,76.55
2023-05-05T07:20:50.898Z,76.53
2023-05-05T07:23:17.362Z,75.85
2023-05-05T07:25:44.104Z,75.87
2023-05-05T07:28:11.318Z,76.62
2023-05-05T07:30:37.780Z,75.99
2023-05-05T07:33:04.318Z,76.38
2023-05-05T07:35:30.943Z,76.11
2023-05-05T07:37:57.388Z,76.19
2023-05-05T07:40:23.865Z,75.38
2023-05-05T07:42:50.461Z,75.86
2023-05-05T07:45:17.023Z,74.61
2023-05-05T07:47:43.757Z,74.32
2023-05-05T07:50:10.783Z,72.72
2023-05-05T07:52:46.100Z,73.15
2023-05-05T07:55:16.488Z,73.46
2023-05-05T07:57:42.997Z,71.74
2023-05-05T08:00:10.871Z,72.37
2023-05-05T08:02:37.561Z,73.54
2023-05-05T08:05:04.680Z,72.61
2023-05-05T08:07:31.250Z,71.69
2023-05-05T08:09:57.768Z,72.08
2023-05-05T08:12:24.872Z,71.83
2023-05-05T08:14:51.595Z,72.56
2023-05-05T08:17:18.460Z,71.43
2023-05-05T08:19:44.886Z,70.81
2023-05-05T08:22:11.416Z,69.81
2023-05-05T08:24:37.834Z,70.01
2023-05-05T08:27:04.313Z,69.26
2023-05-05T08:29:30.913Z,67.29
2023-05-05T08:31:57.474Z,67.52
2023-05-05T08:34:24.122Z,67.07
2023-05-05T08:36:51.059Z,65.79
2023-05-05T08:39:17.586Z,66.26
2023-05-05T08:41:45.331Z,66.04
2023-05-05T08:44:11.991Z,66.88
2023-05-05T08:46:39.085Z,67.15
2023-05-05T08:49:08.890Z,66.43
2023-05-05T08:51:43.143Z,66.90
2023-05-05T08:54:15.229Z,67.77
2023-05-05T08:56:42.648Z,65.13
2023-05-05T08:59:11.916Z,64.17
2023-05-05T09:01:39.387Z,64.11
2023-05-05T09:04:07.756Z,64.66
2023-05-05T09:06:35.600Z,65.25
2023-05-05T09:09:02.083Z,64.58
2023-05-05T09:11:28.599Z,63.79
2023-05-05T09:13:55.850Z,63.60
2023-05-05T09:16:22.646Z,62.84
2023-05-05T09:18:49.241Z,63.69
2023-05-05T09:21:22.678Z,64.03
2023-05-05T09:24:18.789Z,64.65
2023-05-05T09:26:46.855Z,63.96
2023-05-05T09:29:21.545Z,63.68
2023-05-05T09:32:11.183Z,63.98
2023-05-05T09:34:38.087Z,64.03
2023-05-05T09:37:05.877Z,63.13
2023-05-05T09:39:32.451Z,62.73
2023-05-05T09:41:58.940Z,62.71
2023-05-05T09:44:36.296Z,63.09
2023-05-05T09:47:05.406Z,63.92
2023-05-05T09:49:38.399Z,63.96
2023-05-05T09:52:17.709Z,64.61
2023-05-05T09:54:44.272Z,64.96
2023-05-05T09:57:29.446Z,65.79
2023-05-05T09:59:58.061Z,66.33
2023-05-05T10:02:35.498Z,65.98
2023-05-05T10:05:11.377Z,65.37
2023-05-05T10:07:39.485Z,65.14
2023-05-05T10:10:08.443Z,67.20
2023-05-05T10:12:36.919Z,66.33
2023-05-05T10:15:05.292Z,66.41
2023-05-05T10:17:35.773Z,66.13
2023-05-05T10:20:04.134Z,64.92
2023-05-05T10:22:35.055Z,68.30
2023-05-05T10:25:10.854Z,76.24
2023-05-05T10:27:51.327Z,81.63
2023-05-05T10:30:24.002Z,86.26
2023-05-05T10:33:05.039Z,93.22
2023-05-05T10:35:43.550Z,95.60
2023-05-05T10:38:12.632Z,96.25
2023-05-05T10:40:46.524Z,96.35
2023-05-05T10:43:14.462Z,95.77
2023-05-05T10:45:42.863Z,97.13
2023-05-05T10:48:14.734Z,96.89
2023-05-05T10:50:56.571Z,96.56
2023-05-05T10:53:32.654Z,99.85
2023-05-05T10:56:09.357Z,100.00
2023-05-05T10:58:47.017Z,100.00
2023-05-05T11:01:40.504Z,99.46
2023-05-05T11:04:20.628Z,100.00
2023-05-05T11:07:14.958Z,100.00
2023-05-05T11:10:01.228Z,100.00
2023-05-05T11:12:29.514Z,100.00
2023-05-05T11:15:21.834Z,100.00
2023-05-05T11:17:48.619Z,100.00
2023-05-05T11:20:15.361Z,100.00
2023-05-05T11:23:03.595Z,100.00
2023-05-05T11:25:36.562Z,100.00
2023-05-05T11:28:12.701Z,100.00
2023-05-05T11:30:58.548Z,100.00
2023-05-05T11:33:36.074Z,100.00
2023-05-05T11:36:06.647Z,100.00
2023-05-05T11:39:12.797Z,100.00
2023-05-05T11:41:53.954Z,100.00
2023-05-05T11:44:30.197Z,100.00
2023-05-05T11:47:02.901Z,100.00
2023-05-05T11:49:37.138Z,100.00
2023-05-05T11:52:06.108Z,100.00
2023-05-05T11:54:34.416Z,100.00
2023-05-05T11:57:08.919Z,100.00
2023-05-05T11:59:37.349Z,100.00
2023-05-05T12:02:04.716Z,100.00
2023-05-05T12:04:31.790Z,100.00
2023-05-05T12:06:59.354Z,100.00
2023-05-05T12:09:26.959Z,100.00
2023-05-05T12:11:58.408Z,100.00
2023-05-05T12:14:25.694Z,100.00
2023-05-05T12:17:08.522Z,100.00
2023-05-05T12:19:36.156Z,100.00
2023-05-05T12:22:04.867Z,100.00
2023-05-05T12:24:31.556Z,100.00
2023-05-05T12:27:08.465Z,100.00
2023-05-05T12:29:34.869Z,100.00
2023-05-05T12:32:01.398Z,100.00
2023-05-05T12:34:28.153Z,100.00
2023-05-05T12:36:54.866Z,100.00
2023-05-05T12:39:21.592Z,100.00
2023-05-05T12:41:48.121Z,100.00
2023-05-05T12:44:14.568Z,100.00
2023-05-05T12:46:48.523Z,100.00
2023-05-05T12:49:15.387Z,100.00
2023-05-05T12:51:56.396Z,100.00
2023-05-05T12:54:25.078Z,100.00
2023-05-05T12:56:51.689Z,100.00
2023-05-05T12:59:21.185Z,100.00
2023-05-05T13:01:53.937Z,100.00
2023-05-05T13:04:22.902Z,100.00
2023-05-05T13:06:53.049Z,100.00
2023-05-05T13:09:25.748Z,100.00
2023-05-05T13:11:54.440Z,100.00
2023-05-05T13:14:21.554Z,100.00
2023-05-05T13:16:48.153Z,100.00
2023-05-05T13:19:14.726Z,100.00
2023-05-05T13:21:41.797Z,100.00
2023-05-05T13:24:23.688Z,100.00
2023-05-05T13:26:55.792Z,100.00
2023-05-05T13:29:23.587Z,100.00
2023-05-05T13:31:52.750Z,100.00
2023-05-05T13:34:19.215Z,100.00
2023-05-05T13:36:45.902Z,100.00
2023-05-05T13:39:12.671Z,100.00
2023-05-05T13:41:40.496Z,100.00
2023-05-05T13:44:06.937Z,100.00
2023-05-05T13:46:33.415Z,100.00
2023-05-05T13:49:00.353Z,100.00
2023-05-05T13:51:26.880Z,100.00
2023-05-05T13:53:53.370Z,100.00
2023-05-05T13:56:19.923Z,100.00
2023-05-05T13:58:46.396Z,100.00
2023-05-05T14:01:12.901Z,100.00
2023-05-05T14:03:39.801Z,100.00
2023-05-05T14:06:07.485Z,100.00
2023-05-05T14:08:34.070Z,100.00
2023-05-05T14:11:00.544Z,100.00
2023-05-05T14:13:26.979Z,100.00
2023-05-05T14:15:53.829Z,100.00
2023-05-05T14:18:20.819Z,100.00
2023-05-05T14:20:47.262Z,100.00
2023-05-05T14:23:13.704Z,100.00
2023-05-05T14:25:40.312Z,100.00
2023-05-05T14:28:07.334Z,100.00
2023-05-05T14:30:33.749Z,100.00
2023-05-05T14:33:01.226Z,100.00
2023-05-05T14:35:27.897Z,100.00
2023-05-05T14:37:54.372Z,100.00
2023-05-05T14:40:20.907Z,100.00
2023-05-05T14:42:47.315Z,100.00
2023-05-05T14:45:13.720Z,100.00
2023-05-05T14:47:40.377Z,100.00
2023-05-05T14:50:09.661Z,100.00
2023-05-05T14:52:39.064Z,100.00
2023-05-05T14:55:06.846Z,100.00
2023-05-05T14:57:33.526Z,100.00
2023-05-05T14:59:59.925Z,100.00
2023-05-05T15:02:26.568Z,100.00
2023-05-05T15:04:53.141Z,100.00
2023-05-05T15:07:20.525Z,98.50
2023-05-05T15:09:47.022Z,96.44
2023-05-05T15:12:13.603Z,98.24
2023-05-05T15:14:40.803Z,98.62
2023-05-05T15:17:07.363Z,98.39
2023-05-05T15:19:33.800Z,97.60
2023-05-05T15:22:00.272Z,96.26
2023-05-05T15:24:26.778Z,95.95
2023-05-05T15:26:53.292Z,96.31
2023-05-05T15:29:19.866Z,97.76
2023-05-05T15:31:46.338Z,98.93
2023-05-05T15:34:12.833Z,97.77
2023-05-05T15:36:39.294Z,98.79
2023-05-05T15:39:05.782Z,98.30
2023-05-05T15:41:34.337Z,96.86
2023-05-05T15:44:02.109Z,95.33
2023-05-05T15:46:32.774Z,95.17
2023-05-05T15:48:59.444Z,94.93
2023-05-05T15:51:26.247Z,94.23
2023-05-05T15:53:53.338Z,94.50
2023-05-05T15:56:19.866Z,94.60
2023-05-05T15:58:46.420Z,94.87
2023-05-05T16:01:12.961Z,97.07
2023-05-05T16:03:39.453Z,97.17
2023-05-05T16:06:06.284Z,96.25
2023-05-05T16:08:32.826Z,93.93
2023-05-05T16:10:59.272Z,95.42
2023-05-05T16:13:25.692Z,95.65
2023-05-05T16:15:52.136Z,96.28
2023-05-05T16:18:18.545Z,95.91
2023-05-05T16:20:45.184Z,93.09
2023-05-05T16:23:11.668Z,92.60
2023-05-05T16:25:38.177Z,91.39
2023-05-05T16:28:04.791Z,89.91
2023-05-05T16:30:31.252Z,89.16
2023-05-05T16:32:57.786Z,90.64
2023-05-05T16:35:24.334Z,87.11
2023-05-05T16:37:50.833Z,86.23
2023-05-05T16:40:17.410Z,86.23
2023-05-05T16:42:44.458Z,85.21
2023-05-05T16:45:11.523Z,84.93
2023-05-05T16:47:38.356Z,86.78
2023-05-05T16:50:05.433Z,84.19
2023-05-05T16:52:31.887Z,84.97
2023-05-05T16:54:58.384Z,84.09
2023-05-05T16:57:25.006Z,82.15
2023-05-05T16:59:54.393Z,82.46
2023-05-05T17:02:20.822Z,81.50
2023-05-05T17:04:47.570Z,82.96
2023-05-05T17:07:14.046Z,82.59
2023-05-05T17:09:40.480Z,80.97
2023-05-05T17:12:07.151Z,79.60
2023-05-05T17:14:33.723Z,81.50
2023-05-05T17:17:00.272Z,81.88
2023-05-05T17:19:26.838Z,83.85
2023-05-05T17:21:54.233Z,82.33
2023-05-05T17:24:20.878Z,81.79
2023-05-05T17:26:47.654Z,82.46
2023-05-05T17:29:15.241Z,81.07
2023-05-05T17:31:41.973Z,83.09
2023-05-05T17:34:08.515Z,82.87
2023-05-05T17:36:35.444Z,81.51
2023-05-05T17:39:02.006Z,83.11
2023-05-05T17:41:28.471Z,85.00
2023-05-05T17:43:55.692Z,84.45
2023-05-05T17:46:22.292Z,85.93
2023-05-05T17:48:48.922Z,87.46
2023-05-05T17:51:15.424Z,87.91
2023-05-05T17:53:41.850Z,85.31
2023-05-05T17:56:09.096Z,86.57
2023-05-05T17:58:35.792Z,85.21
2023-05-05T18:01:02.317Z,86.54
2023-05-05T18:03:29.251Z,86.62
2023-05-05T18:05:56.055Z,86.77
2023-05-05T18:08:22.504Z,87.66
2023-05-05T18:10:49.061Z,86.88
2023-05-05T18:13:15.845Z,85.84
2023-05-05T18:15:42.376Z,85.77
2023-05-05T18:18:08.888Z,85.75
2023-05-05T18:20:35.354Z,83.84
2023-05-05T18:23:01.887Z,85.70
2023-05-05T18:25:28.463Z,85.31
2023-05-05T18:27:54.917Z,86.77
2023-05-05T18:30:21.427Z,88.94
2023-05-05T18:32:48.811Z,90.20
2023-05-05T18:35:15.501Z,90.80
2023-05-05T18:37:42.258Z,91.90
2023-05-05T18:40:10.121Z,92.13
2023-05-05T18:42:36.635Z,92.59
2023-05-05T18:45:03.273Z,93.25
2023-05-05T18:47:29.778Z,93.86
2023-05-05T18:49:56.313Z,94.36
2023-05-05T18:52:22.919Z,94.62
2023-05-05T18:54:49.393Z,94.65
2023-05-05T18:57:15.861Z,95.44
2023-05-05T18:59:42.349Z,95.26
2023-05-05T19:02:08.800Z,95.72
2023-05-05T19:04:37.842Z,95.61
2023-05-05T19:07:04.773Z,96.13
2023-05-05T19:09:31.282Z,96.79
2023-05-05T19:11:57.733Z,96.85
2023-05-05T19:14:24.518Z,97.54
2023-05-05T19:16:51.370Z,98.04
2023-05-05T19:19:18.246Z,98.05
2023-05-05T19:21:44.699Z,97.88
2023-05-05T19:24:11.651Z,98.11
2023-05-05T19:26:38.407Z,98.09
2023-05-05T19:29:04.888Z,98.05
2023-05-05T19:31:31.565Z,98.22
2023-05-05T19:34:00.932Z,98.78
2023-05-05T19:36:31.594Z,98.56
2023-05-05T19:39:03.863Z,99.38
2023-05-05T19:41:31.250Z,99.61
2023-05-05T19:43:57.760Z,99.72
2023-05-05T19:46:27.390Z,100.00
2023-05-05T19:48:53.953Z,100.00
2023-05-05T19:51:20.678Z,100.00
2023-05-05T19:53:47.171Z,100.00
2023-05-05T19:56:13.695Z,100.00
2023-05-05T19:58:54.556Z,100.00
2023-05-05T20:01:21.229Z,100.00
2023-05-05T20:03:47.966Z,100.00
2023-05-05T20:06:14.483Z,100.00
2023-05-05T20:08:40.996Z,100.00
2023-05-05T20:11:07.472Z,100.00
2023-05-05T20:13:34.371Z,100.00
2023-05-05T20:16:01.033Z,100.00
2023-05-05T20:18:27.611Z,100.00
2023-05-05T20:20:54.233Z,100.00
2023-05-05T20:23:20.876Z,100.00
2023-05-05T20:25:47.395Z,100.00
2023-05-05T20:28:13.858Z,100.00
2023-05-05T20:30:40.535Z,100.00
2023-05-05T20:33:06.993Z,100.00
2023-05-05T20:35:33.455Z,100.00
2023-05-05T20:37:59.969Z,100.00
2023-05-05T20:40:26.674Z,100.00
2023-05-05T20:42:53.104Z,100.00
2023-05-05T20:45:19.594Z,100.00
2023-05-05T20:47:46.191Z,100.00
2023-05-05T20:50:12.889Z,100.00
2023-05-05T20:52:39.510Z,100.00
2023-05-05T20:55:06.597Z,100.00
2023-05-05T20:57:33.900Z,100.00
2023-05-05T21:00:00.427Z,100.00
2023-05-05T21:02:26.956Z,100.00
2023-05-05T21:04:53.465Z,100.00
2023-05-05T21:07:20.013Z,100.00
2023-05-05T21:09:46.966Z,100.00
2023-05-05T21:12:13.438Z,100.00
2023-05-05T21:14:44.578Z,100.00
2023-05-05T21:17:11.049Z,100.00
2023-05-05T21:19:37.571Z,100.00
2023-05-05T21:22:04.403Z,100.00
2023-05-05T21:24:31.136Z,100.00
2023-05-05T21:26:57.589Z,100.00
2023-05-05T21:29:27.210Z,100.00
2023-05-05T21:31:53.708Z,100.00
2023-05-05T21:34:20.242Z,100.00
2023-05-05T21:36:46.632Z,100.00
2023-05-05T21:39:13.096Z,100.00
2023-05-05T21:41:39.496Z,100.00
2023-05-05T21:44:05.943Z,100.00
2023-05-05T21:46:32.361Z,100.00
2023-05-05T21:48:58.849Z,100.00
2023-05-05T21:51:25.460Z,100.00
2023-05-05T21:53:51.979Z,100.00
2023-05-05T21:56:18.485Z,100.00
2023-05-05T21:58:44.967Z,100.00
2023-05-05T22:01:12.036Z,100.00
2023-05-05T22:03:38.661Z,100.00
2023-05-05T22:06:05.483Z,100.00
2023-05-05T22:08:32.005Z,100.00
2023-05-05T22:10:58.397Z,100.00
2023-05-05T22:13:24.925Z,100.00
2023-05-05T22:15:51.597Z,100.00
2023-05-05T22:18:18.059Z,100.00
2023-05-05T22:20:44.588Z,100.00
2023-05-05T22:23:11.133Z,100.00
2023-05-05T22:25:37.593Z,100.00
2023-05-05T22:28:04.327Z,100.00
2023-05-05T22:30:31.119Z,100.00
2023-05-05T22:32:57.655Z,100.00
2023-05-05T22:35:24.421Z,100.00
2023-05-05T22:37:50.944Z,100.00
2023-05-05T22:40:17.434Z,100.00
2023-05-05T22:42:44.014Z,100.00
2023-05-05T22:45:11.199Z,100.00
2023-05-05T22:47:37.878Z,100.00
2023-05-05T22:50:04.571Z,100.00
2023-05-05T22:52:31.083Z,100.00
2023-05-05T22:54:57.553Z,100.00
2023-05-05T22:57:24.310Z,100.00
2023-05-05T22:59:51.052Z,100.00
2023-05-05T23:02:17.498Z,100.00
2023-05-05T23:04:44.896Z,100.00
2023-05-05T23:07:12.886Z,100.00
2023-05-05T23:09:40.698Z,100.00
2023-05-05T23:12:07.304Z,100.00
2023-05-05T23:14:33.959Z,100.00
2023-05-05T23:17:00.853Z,100.00
2023-05-05T23:19:29.087Z,100.00
2023-05-05T23:21:55.714Z,100.00
2023-05-05T23:24:22.272Z,100.00
2023-05-05T23:26:48.722Z,100.00
2023-05-05T23:29:15.197Z,100.00
2023-05-05T23:31:41.703Z,100.00
2023-05-05T23:34:08.503Z,100.00
2023-05-05T23:36:35.116Z,100.00
2023-05-05T23:39:01.536Z,100.00
2023-05-05T23:41:28.040Z,100.00
2023-05-05T23:43:54.530Z,100.00
2023-05-05T23:46:20.991Z,100.00
2023-05-05T23:48:47.388Z,100.00
2023-05-05T23:51:13.877Z,100.00
2023-05-05T23:53:40.378Z,100.00
2023-05-05T23:56:07.776Z,100.00
2023-05-05T23:58:34.279Z,100.00
